PWSweather.com
Personal Weather Stations
Station Observations
SPARKSRC
St. Petersburg, FL 33716

St. Petersburg, FL 33716

Lat: 27.876101, Lon: -82.657194

Elevation: 13

Station Type: Zephyr PWS-1000TD

High Low Average
Temperature 108.0°F42.2°F 74.5°F23.6°F 84.2°F29.0°F
Dew Point 84.4°F29.1°F 67.9°F19.9°F 73.4°F23.0°F
Winds 10.7 mph SE17.2 mph SE Calm Calm 4.3 mph 6.9 mph
Wind Gusts 19.7 mph31.7 mph -- 8.0 mph12.9 mph
Humidity 83% 48% 71%
Pressure 29.81 in1009.50 in 29.70 in1005.80 in -
Precipitation 1.85 in47.00 in - -
Hour Temp Dew Point Humidity Winds Wind Gusts Pressure Precip Precip Rate Daily Precip Total
12:00 AM 84.2°F29.0°C 73.0°F22.8°C 69% 10.7 mph SE17.2 kmh SE 19.7 mph31.7 kmh 29.81 in1009.5 mb 0.00 in0.0 mm 0.00 in0.0 mm 0.00 in0.0 mm
12:05 AM 84.2°F29.0°C 73.0°F22.8°C 69% 10.7 mph SE17.2 kmh SE 19.7 mph31.7 kmh 29.81 in1009.5 mb 0.00 in0.0 mm 0.00 in0.0 mm 0.00 in0.0 mm
12:10 AM 84.2°F29.0°C 73.0°F22.8°C 69% 10.7 mph SE17.2 kmh SE 19.7 mph31.7 kmh 29.80 in1009.1 mb 0.00 in0.0 mm 0.00 in0.0 mm 0.00 in0.0 mm
12:15 AM 84.2°F29.0°C 73.0°F22.8°C 69% 10.7 mph SE17.2 kmh SE 19.7 mph31.7 kmh 29.80 in1009.1 mb 0.00 in0.0 mm 0.00 in0.0 mm 0.00 in0.0 mm
12:20 AM 84.2°F29.0°C 73.0°F22.8°C 69% 10.7 mph SE17.2 kmh SE 19.7 mph31.7 kmh 29.80 in1009.1 mb 0.00 in0.0 mm 0.00 in0.0 mm 0.00 in0.0 mm
12:25 AM 84.2°F29.0°C 73.0°F22.8°C 69% 10.7 mph SE17.2 kmh SE 19.7 mph31.7 kmh 29.79 in1008.8 mb 0.00 in0.0 mm 0.00 in0.0 mm 0.00 in0.0 mm
12:30 AM 84.2°F29.0°C 73.0°F22.8°C 69% 10.7 mph SE17.2 kmh SE 19.7 mph31.7 kmh 29.79 in1008.8 mb 0.00 in0.0 mm 0.00 in0.0 mm 0.00 in0.0 mm
12:35 AM 84.2°F29.0°C 73.0°F22.8°C 69% 10.7 mph SE17.2 kmh SE 19.7 mph31.7 kmh 29.79 in1008.8 mb 0.00 in0.0 mm 0.00 in0.0 mm 0.00 in0.0 mm
12:40 AM 84.2°F29.0°C 73.0°F22.8°C 69% 10.7 mph SE17.2 kmh SE 19.7 mph31.7 kmh 29.79 in1008.8 mb 0.00 in0.0 mm 0.00 in0.0 mm 0.00 in0.0 mm
12:45 AM 84.2°F29.0°C 73.0°F22.8°C 69% 10.7 mph SE17.2 kmh SE 19.7 mph31.7 kmh 29.79 in1008.8 mb 0.00 in0.0 mm 0.00 in0.0 mm 0.00 in0.0 mm
12:50 AM 84.2°F29.0°C 73.0°F22.8°C 69% 10.7 mph SE17.2 kmh SE 19.7 mph31.7 kmh 29.78 in1008.5 mb 0.00 in0.0 mm 0.00 in0.0 mm 0.00 in0.0 mm
12:55 AM 84.2°F29.0°C 73.0°F22.8°C 69% 10.7 mph SE17.2 kmh SE 19.7 mph31.7 kmh 29.78 in1008.5 mb 0.00 in0.0 mm 0.00 in0.0 mm 0.00 in0.0 mm
01:00 AM 84.2°F29.0°C 73.0°F22.8°C 69% 10.7 mph SE17.2 kmh SE 19.7 mph31.7 kmh 29.78 in1008.5 mb 0.00 in0.0 mm 0.00 in0.0 mm 0.00 in0.0 mm
01:05 AM 77.7°F25.4°C 68.8°F20.4°C 74% 3.8 mph NE6.1 kmh NE 6.0 mph9.7 kmh 29.79 in1008.8 mb 0.00 in0.0 mm 0.00 in0.0 mm 0.00 in0.0 mm
01:10 AM 77.7°F25.4°C 68.8°F20.4°C 74% 3.1 mph NE5.0 kmh NE 6.0 mph9.7 kmh 29.78 in1008.5 mb 0.00 in0.0 mm 0.00 in0.0 mm 0.00 in0.0 mm
01:15 AM 77.7°F25.4°C 69.2°F20.7°C 75% 3.8 mph NE6.1 kmh NE 5.4 mph8.7 kmh 29.77 in1008.1 mb 0.00 in0.0 mm 0.00 in0.0 mm 0.00 in0.0 mm
01:20 AM 77.9°F25.5°C 69.4°F20.8°C 75% 3.1 mph NE5.0 kmh NE 5.4 mph8.7 kmh 29.77 in1008.1 mb 0.00 in0.0 mm 0.00 in0.0 mm 0.00 in0.0 mm
01:25 AM 77.9°F25.5°C 69.8°F21.0°C 76% 3.1 mph ENE5.0 kmh ENE 5.4 mph8.7 kmh 29.78 in1008.5 mb 0.00 in0.0 mm 0.00 in0.0 mm 0.00 in0.0 mm
01:30 AM 77.9°F25.5°C 69.8°F21.0°C 76% 2.2 mph ENE3.5 kmh ENE 4.5 mph7.2 kmh 29.77 in1008.1 mb 0.00 in0.0 mm 0.00 in0.0 mm 0.00 in0.0 mm
01:35 AM 77.9°F25.5°C 69.8°F21.0°C 76% 2.2 mph ENE3.5 kmh ENE 4.5 mph7.2 kmh 29.77 in1008.1 mb 0.00 in0.0 mm 0.00 in0.0 mm 0.00 in0.0 mm
01:40 AM 77.9°F25.5°C 69.8°F21.0°C 76% 3.1 mph ESE5.0 kmh ESE 5.4 mph8.7 kmh 29.75 in1007.5 mb 0.00 in0.0 mm 0.00 in0.0 mm 0.00 in0.0 mm
01:45 AM 77.9°F25.5°C 69.8°F21.0°C 76% 3.1 mph SE5.0 kmh SE 5.4 mph8.7 kmh 29.76 in1007.8 mb 0.00 in0.0 mm 0.00 in0.0 mm 0.00 in0.0 mm
01:50 AM 77.9°F25.5°C 69.8°F21.0°C 76% 3.1 mph SE5.0 kmh SE 6.0 mph9.7 kmh 29.75 in1007.5 mb 0.00 in0.0 mm 0.00 in0.0 mm 0.00 in0.0 mm
01:55 AM 77.9°F25.5°C 69.8°F21.0°C 76% 4.5 mph SE7.2 kmh SE 6.9 mph11.1 kmh 29.76 in1007.8 mb 0.00 in0.0 mm 0.00 in0.0 mm 0.00 in0.0 mm
02:00 AM 77.9°F25.5°C 69.8°F21.0°C 76% 3.1 mph ESE5.0 kmh ESE 6.9 mph11.1 kmh 29.76 in1007.8 mb 0.00 in0.0 mm 0.00 in0.0 mm 0.00 in0.0 mm
02:05 AM 77.9°F25.5°C 69.8°F21.0°C 76% 3.1 mph E5.0 kmh E 6.0 mph9.7 kmh 29.76 in1007.8 mb 0.00 in0.0 mm 0.00 in0.0 mm 0.00 in0.0 mm
02:10 AM 77.9°F25.5°C 69.8°F21.0°C 76% 3.1 mph E5.0 kmh E 5.4 mph8.7 kmh 29.76 in1007.8 mb 0.00 in0.0 mm 0.00 in0.0 mm 0.00 in0.0 mm
02:15 AM 78.1°F25.6°C 69.9°F21.1°C 76% 3.1 mph E5.0 kmh E 6.0 mph9.7 kmh 29.76 in1007.8 mb 0.00 in0.0 mm 0.00 in0.0 mm 0.00 in0.0 mm
02:20 AM 78.1°F25.6°C 70.3°F21.3°C 77% 2.2 mph E3.5 kmh E 6.0 mph9.7 kmh 29.76 in1007.8 mb 0.00 in0.0 mm 0.00 in0.0 mm 0.00 in0.0 mm
02:25 AM 78.1°F25.6°C 70.3°F21.3°C 77% 2.2 mph ENE3.5 kmh ENE 4.5 mph7.2 kmh 29.76 in1007.8 mb 0.00 in0.0 mm 0.00 in0.0 mm 0.00 in0.0 mm
02:30 AM 77.9°F25.5°C 70.2°F21.2°C 77% 2.2 mph NE3.5 kmh NE 3.8 mph6.1 kmh 29.75 in1007.5 mb 0.00 in0.0 mm 0.00 in0.0 mm 0.00 in0.0 mm
02:35 AM 78.1°F25.6°C 70.7°F21.5°C 78% 3.8 mph NE6.1 kmh NE 5.4 mph8.7 kmh 29.75 in1007.5 mb 0.00 in0.0 mm 0.00 in0.0 mm 0.00 in0.0 mm
02:40 AM 78.1°F25.6°C 70.7°F21.5°C 78% 2.2 mph NE3.5 kmh NE 5.4 mph8.7 kmh 29.75 in1007.5 mb 0.00 in0.0 mm 0.00 in0.0 mm 0.00 in0.0 mm
02:45 AM 77.9°F25.5°C 70.5°F21.4°C 78% 2.2 mph NE3.5 kmh NE 4.5 mph7.2 kmh 29.75 in1007.5 mb 0.00 in0.0 mm 0.00 in0.0 mm 0.00 in0.0 mm
02:50 AM 77.9°F25.5°C 70.5°F21.4°C 78% 2.2 mph NE3.5 kmh NE 3.8 mph6.1 kmh 29.75 in1007.5 mb 0.00 in0.0 mm 0.00 in0.0 mm 0.00 in0.0 mm
02:55 AM 77.9°F25.5°C 70.5°F21.4°C 78% 2.2 mph NE3.5 kmh NE 3.8 mph6.1 kmh 29.75 in1007.5 mb 0.00 in0.0 mm 0.00 in0.0 mm 0.00 in0.0 mm
03:00 AM 77.9°F25.5°C 70.9°F21.6°C 79% 2.2 mph NE3.5 kmh NE 4.5 mph7.2 kmh 29.76 in1007.8 mb 0.00 in0.0 mm 0.00 in0.0 mm 0.00 in0.0 mm
03:05 AM 77.9°F25.5°C 70.9°F21.6°C 79% 3.8 mph ENE6.1 kmh ENE 5.4 mph8.7 kmh 29.75 in1007.5 mb 0.00 in0.0 mm 0.00 in0.0 mm 0.00 in0.0 mm
03:10 AM 77.9°F25.5°C 70.9°F21.6°C 79% 2.2 mph E3.5 kmh E 5.4 mph8.7 kmh 29.75 in1007.5 mb 0.00 in0.0 mm 0.00 in0.0 mm 0.00 in0.0 mm
03:15 AM 77.7°F25.4°C 70.7°F21.5°C 79% 3.8 mph E6.1 kmh E 5.4 mph8.7 kmh 29.76 in1007.8 mb 0.00 in0.0 mm 0.00 in0.0 mm 0.00 in0.0 mm
03:20 AM 77.7°F25.4°C 70.7°F21.5°C 79% 3.8 mph E6.1 kmh E 6.0 mph9.7 kmh 29.75 in1007.5 mb 0.00 in0.0 mm 0.00 in0.0 mm 0.00 in0.0 mm
03:25 AM 77.9°F25.5°C 70.9°F21.6°C 79% 3.1 mph E5.0 kmh E 6.0 mph9.7 kmh 29.75 in1007.5 mb 0.00 in0.0 mm 0.00 in0.0 mm 0.00 in0.0 mm
03:30 AM 77.9°F25.5°C 71.3°F21.8°C 80% 6.0 mph E9.7 kmh E 7.6 mph12.2 kmh 29.75 in1007.5 mb 0.00 in0.0 mm 0.00 in0.0 mm 0.00 in0.0 mm
03:35 AM 78.1°F25.6°C 71.5°F21.9°C 80% 5.4 mph E8.7 kmh E 9.2 mph14.8 kmh 29.75 in1007.5 mb 0.00 in0.0 mm 0.00 in0.0 mm 0.00 in0.0 mm
03:40 AM 78.1°F25.6°C 71.8°F22.1°C 81% 3.8 mph E6.1 kmh E 9.2 mph14.8 kmh 29.75 in1007.5 mb 0.00 in0.0 mm 0.00 in0.0 mm 0.00 in0.0 mm
03:45 AM 78.1°F25.6°C 71.8°F22.1°C 81% 5.4 mph ENE8.7 kmh ENE 7.6 mph12.2 kmh 29.75 in1007.5 mb 0.00 in0.0 mm 0.00 in0.0 mm 0.00 in0.0 mm
03:50 AM 78.1°F25.6°C 71.8°F22.1°C 81% 5.4 mph ENE8.7 kmh ENE 9.2 mph14.8 kmh 29.75 in1007.5 mb 0.00 in0.0 mm 0.00 in0.0 mm 0.00 in0.0 mm
03:55 AM 78.1°F25.6°C 71.8°F22.1°C 81% 3.1 mph NE5.0 kmh NE 9.2 mph14.8 kmh 29.75 in1007.5 mb 0.00 in0.0 mm 0.00 in0.0 mm 0.00 in0.0 mm
04:00 AM 78.3°F25.7°C 72.0°F22.2°C 81% 3.1 mph ENE5.0 kmh ENE 8.3 mph13.4 kmh 29.75 in1007.5 mb 0.00 in0.0 mm 0.00 in0.0 mm 0.00 in0.0 mm
04:05 AM 78.1°F25.6°C 71.8°F22.1°C 81% 7.6 mph E12.2 kmh E 9.8 mph15.8 kmh 29.75 in1007.5 mb 0.00 in0.0 mm 0.00 in0.0 mm 0.00 in0.0 mm
04:10 AM 78.1°F25.6°C 72.2°F22.3°C 82% 6.0 mph E9.7 kmh E 9.8 mph15.8 kmh 29.75 in1007.5 mb 0.00 in0.0 mm 0.00 in0.0 mm 0.00 in0.0 mm
04:15 AM 78.3°F25.7°C 72.4°F22.4°C 82% 3.8 mph E6.1 kmh E 9.8 mph15.8 kmh 29.75 in1007.5 mb 0.00 in0.0 mm 0.00 in0.0 mm 0.00 in0.0 mm
04:20 AM 78.1°F25.6°C 72.2°F22.3°C 82% 4.5 mph E7.2 kmh E 9.2 mph14.8 kmh 29.75 in1007.5 mb 0.00 in0.0 mm 0.00 in0.0 mm 0.00 in0.0 mm
04:25 AM 78.1°F25.6°C 72.2°F22.3°C 82% 3.8 mph E6.1 kmh E 9.2 mph14.8 kmh 29.75 in1007.5 mb 0.00 in0.0 mm 0.00 in0.0 mm 0.00 in0.0 mm
04:30 AM 78.1°F25.6°C 72.2°F22.3°C 82% 5.4 mph E8.7 kmh E 9.2 mph14.8 kmh 29.75 in1007.5 mb 0.00 in0.0 mm 0.00 in0.0 mm 0.00 in0.0 mm
04:35 AM 78.3°F25.7°C 72.4°F22.4°C 82% 3.1 mph E5.0 kmh E 9.2 mph14.8 kmh 29.75 in1007.5 mb 0.00 in0.0 mm 0.00 in0.0 mm 0.00 in0.0 mm
04:40 AM 78.1°F25.6°C 72.2°F22.3°C 82% 3.8 mph E6.1 kmh E 7.6 mph12.2 kmh 29.75 in1007.5 mb 0.00 in0.0 mm 0.00 in0.0 mm 0.00 in0.0 mm
04:45 AM 78.1°F25.6°C 72.2°F22.3°C 82% 5.4 mph ENE8.7 kmh ENE 6.9 mph11.1 kmh 29.74 in1007.1 mb 0.00 in0.0 mm 0.00 in0.0 mm 0.00 in0.0 mm
04:50 AM 77.9°F25.5°C 72.0°F22.2°C 82% 3.1 mph ENE5.0 kmh ENE 6.9 mph11.1 kmh 29.74 in1007.1 mb 0.00 in0.0 mm 0.00 in0.0 mm 0.00 in0.0 mm
04:55 AM 78.3°F25.7°C 72.7°F22.6°C 83% 2.2 mph ENE3.5 kmh ENE 6.9 mph11.1 kmh 29.75 in1007.5 mb 0.00 in0.0 mm 0.00 in0.0 mm 0.00 in0.0 mm
05:00 AM 78.1°F25.6°C 72.5°F22.5°C 83% 1.6 mph NE2.6 kmh NE 5.4 mph8.7 kmh 29.74 in1007.1 mb 0.00 in0.0 mm 0.00 in0.0 mm 0.00 in0.0 mm
05:05 AM 77.9°F25.5°C 72.4°F22.4°C 83% 2.2 mph NE3.5 kmh NE 4.5 mph7.2 kmh 29.74 in1007.1 mb 0.00 in0.0 mm 0.00 in0.0 mm 0.00 in0.0 mm
05:10 AM 77.9°F25.5°C 72.4°F22.4°C 83% 0.7 mph NE1.1 kmh NE 3.8 mph6.1 kmh 29.74 in1007.1 mb 0.00 in0.0 mm 0.00 in0.0 mm 0.00 in0.0 mm
05:15 AM 77.9°F25.5°C 72.4°F22.4°C 83% 3.8 mph ENE6.1 kmh ENE 4.5 mph7.2 kmh 29.74 in1007.1 mb 0.00 in0.0 mm 0.00 in0.0 mm 0.00 in0.0 mm
05:20 AM 77.7°F25.4°C 72.2°F22.3°C 83% 3.1 mph E5.0 kmh E 5.4 mph8.7 kmh 29.75 in1007.5 mb 0.00 in0.0 mm 0.00 in0.0 mm 0.00 in0.0 mm
05:25 AM 77.7°F25.4°C 71.8°F22.1°C 82% 1.6 mph E2.6 kmh E 5.4 mph8.7 kmh 29.74 in1007.1 mb 0.00 in0.0 mm 0.00 in0.0 mm 0.00 in0.0 mm
05:30 AM 77.5°F25.3°C 71.7°F22.1°C 82% 2.2 mph E3.5 kmh E 4.5 mph7.2 kmh 29.75 in1007.5 mb 0.00 in0.0 mm 0.00 in0.0 mm 0.00 in0.0 mm
05:35 AM 77.5°F25.3°C 71.7°F22.1°C 82% 1.6 mph ESE2.6 kmh ESE 3.8 mph6.1 kmh 29.75 in1007.5 mb 0.00 in0.0 mm 0.00 in0.0 mm 0.00 in0.0 mm
05:40 AM 77.5°F25.3°C 71.7°F22.1°C 82% 2.2 mph SE3.5 kmh SE 4.5 mph7.2 kmh 29.74 in1007.1 mb 0.00 in0.0 mm 0.00 in0.0 mm 0.00 in0.0 mm
05:45 AM 77.4°F25.2°C 71.1°F21.7°C 81% 3.1 mph ESE5.0 kmh ESE 4.5 mph7.2 kmh 29.75 in1007.5 mb 0.00 in0.0 mm 0.00 in0.0 mm 0.00 in0.0 mm
05:50 AM 77.4°F25.2°C 71.1°F21.7°C 81% 3.1 mph ESE5.0 kmh ESE 6.0 mph9.7 kmh 29.75 in1007.5 mb 0.00 in0.0 mm 0.00 in0.0 mm 0.00 in0.0 mm
05:55 AM 77.5°F25.3°C 71.3°F21.8°C 81% 2.2 mph ESE3.5 kmh ESE 6.0 mph9.7 kmh 29.75 in1007.5 mb 0.00 in0.0 mm 0.00 in0.0 mm 0.00 in0.0 mm
06:00 AM 77.4°F25.2°C 71.1°F21.7°C 81% 3.1 mph ESE5.0 kmh ESE 5.4 mph8.7 kmh 29.75 in1007.5 mb 0.00 in0.0 mm 0.00 in0.0 mm 0.00 in0.0 mm
06:05 AM 77.5°F25.3°C 71.3°F21.8°C 81% 2.2 mph E3.5 kmh E 5.4 mph8.7 kmh 29.74 in1007.1 mb 0.00 in0.0 mm 0.00 in0.0 mm 0.00 in0.0 mm
06:10 AM 77.5°F25.3°C 71.3°F21.8°C 81% 2.2 mph E3.5 kmh E 4.5 mph7.2 kmh 29.75 in1007.5 mb 0.00 in0.0 mm 0.00 in0.0 mm 0.00 in0.0 mm
06:15 AM 77.5°F25.3°C 71.3°F21.8°C 81% 2.2 mph E3.5 kmh E 3.8 mph6.1 kmh 29.75 in1007.5 mb 0.00 in0.0 mm 0.00 in0.0 mm 0.00 in0.0 mm
06:20 AM 77.4°F25.2°C 71.1°F21.7°C 81% 1.6 mph E2.6 kmh E 3.8 mph6.1 kmh 29.74 in1007.1 mb 0.00 in0.0 mm 0.00 in0.0 mm 0.00 in0.0 mm
06:25 AM 77.4°F25.2°C 71.1°F21.7°C 81% 0.7 mph E1.1 kmh E 3.8 mph6.1 kmh 29.75 in1007.5 mb 0.00 in0.0 mm 0.00 in0.0 mm 0.00 in0.0 mm
06:30 AM 77.4°F25.2°C 71.1°F21.7°C 81% 2.2 mph ESE3.5 kmh ESE 3.8 mph6.1 kmh 29.75 in1007.5 mb 0.00 in0.0 mm 0.00 in0.0 mm 0.00 in0.0 mm
06:35 AM 77.4°F25.2°C 71.1°F21.7°C 81% 2.2 mph SE3.5 kmh SE 4.5 mph7.2 kmh 29.75 in1007.5 mb 0.00 in0.0 mm 0.00 in0.0 mm 0.00 in0.0 mm
06:40 AM 77.4°F25.2°C 71.1°F21.7°C 81% 3.1 mph SE5.0 kmh SE 6.9 mph11.1 kmh 29.75 in1007.5 mb 0.00 in0.0 mm 0.00 in0.0 mm 0.00 in0.0 mm
06:45 AM 77.4°F25.2°C 71.1°F21.7°C 81% 3.1 mph SE5.0 kmh SE 6.9 mph11.1 kmh 29.75 in1007.5 mb 0.00 in0.0 mm 0.00 in0.0 mm 0.00 in0.0 mm
06:50 AM 77.4°F25.2°C 71.1°F21.7°C 81% 0.7 mph SE1.1 kmh SE 5.4 mph8.7 kmh 29.76 in1007.8 mb 0.00 in0.0 mm 0.00 in0.0 mm 0.00 in0.0 mm
06:55 AM 77.4°F25.2°C 70.8°F21.6°C 80% 2.2 mph SE3.5 kmh SE 4.5 mph7.2 kmh 29.76 in1007.8 mb 0.00 in0.0 mm 0.00 in0.0 mm 0.00 in0.0 mm
07:00 AM 77.2°F25.1°C 70.6°F21.4°C 80% 2.2 mph SE3.5 kmh SE 4.5 mph7.2 kmh 29.76 in1007.8 mb 0.00 in0.0 mm 0.00 in0.0 mm 0.00 in0.0 mm
07:05 AM 77.2°F25.1°C 70.6°F21.4°C 80% 3.1 mph SE5.0 kmh SE 4.5 mph7.2 kmh 29.76 in1007.8 mb 0.00 in0.0 mm 0.00 in0.0 mm 0.00 in0.0 mm
07:10 AM 77.4°F25.2°C 70.8°F21.6°C 80% 1.6 mph ESE2.6 kmh ESE 4.5 mph7.2 kmh 29.76 in1007.8 mb 0.00 in0.0 mm 0.00 in0.0 mm 0.00 in0.0 mm
07:15 AM 77.2°F25.1°C 70.6°F21.4°C 80% 2.2 mph E3.5 kmh E 4.5 mph7.2 kmh 29.77 in1008.1 mb 0.00 in0.0 mm 0.00 in0.0 mm 0.00 in0.0 mm
07:20 AM 77.2°F25.1°C 70.6°F21.4°C 80% 1.6 mph E2.6 kmh E 5.4 mph8.7 kmh 29.77 in1008.1 mb 0.00 in0.0 mm 0.00 in0.0 mm 0.00 in0.0 mm
07:25 AM 77.4°F25.2°C 71.1°F21.7°C 81% 3.1 mph ENE5.0 kmh ENE 5.4 mph8.7 kmh 29.77 in1008.1 mb 0.00 in0.0 mm 0.00 in0.0 mm 0.00 in0.0 mm
07:30 AM 77.5°F25.3°C 71.3°F21.8°C 81% 3.1 mph ENE5.0 kmh ENE 6.0 mph9.7 kmh 29.77 in1008.1 mb 0.00 in0.0 mm 0.00 in0.0 mm 0.00 in0.0 mm
07:35 AM 77.5°F25.3°C 71.7°F22.1°C 82% 3.8 mph E6.1 kmh E 6.9 mph11.1 kmh 29.77 in1008.1 mb 0.00 in0.0 mm 0.00 in0.0 mm 0.00 in0.0 mm
07:40 AM 77.7°F25.4°C 71.8°F22.1°C 82% 4.5 mph E7.2 kmh E 6.9 mph11.1 kmh 29.77 in1008.1 mb 0.00 in0.0 mm 0.00 in0.0 mm 0.00 in0.0 mm
07:45 AM 77.7°F25.4°C 72.2°F22.3°C 83% 3.1 mph E5.0 kmh E 6.9 mph11.1 kmh 29.77 in1008.1 mb 0.00 in0.0 mm 0.00 in0.0 mm 0.00 in0.0 mm
07:55 AM 77.9°F25.5°C 72.0°F22.2°C 82% 4.5 mph ESE7.2 kmh ESE 6.0 mph9.7 kmh 29.77 in1008.1 mb 0.00 in0.0 mm 0.00 in0.0 mm 0.00 in0.0 mm
08:00 AM 77.9°F25.5°C 72.0°F22.2°C 82% 4.5 mph SE7.2 kmh SE 6.0 mph9.7 kmh 29.78 in1008.5 mb 0.00 in0.0 mm 0.00 in0.0 mm 0.00 in0.0 mm
08:05 AM 78.1°F25.6°C 71.8°F22.1°C 81% 3.1 mph SE5.0 kmh SE 6.9 mph11.1 kmh 29.78 in1008.5 mb 0.00 in0.0 mm 0.00 in0.0 mm 0.00 in0.0 mm
08:10 AM 77.9°F25.5°C 72.0°F22.2°C 82% 4.5 mph SE7.2 kmh SE 6.9 mph11.1 kmh 29.78 in1008.5 mb 0.00 in0.0 mm 0.00 in0.0 mm 0.00 in0.0 mm
08:15 AM 78.4°F25.8°C 72.5°F22.5°C 82% 2.2 mph SE3.5 kmh SE 6.0 mph9.7 kmh 29.78 in1008.5 mb 0.00 in0.0 mm 0.00 in0.0 mm 0.00 in0.0 mm
08:20 AM 79.0°F26.1°C 72.7°F22.6°C 81% 5.4 mph SE8.7 kmh SE 9.8 mph15.8 kmh 29.78 in1008.5 mb 0.00 in0.0 mm 0.00 in0.0 mm 0.00 in0.0 mm
08:25 AM 79.2°F26.2°C 72.9°F22.7°C 81% 3.8 mph SE6.1 kmh SE 9.8 mph15.8 kmh 29.78 in1008.5 mb 0.00 in0.0 mm 0.00 in0.0 mm 0.00 in0.0 mm
08:30 AM 79.9°F26.6°C 73.6°F23.1°C 81% 3.1 mph SE5.0 kmh SE 7.6 mph12.2 kmh 29.78 in1008.5 mb 0.00 in0.0 mm 0.00 in0.0 mm 0.00 in0.0 mm
08:35 AM 81.0°F27.2°C 74.3°F23.5°C 80% 3.8 mph SE6.1 kmh SE 7.6 mph12.2 kmh 29.78 in1008.5 mb 0.00 in0.0 mm 0.00 in0.0 mm 0.00 in0.0 mm
08:40 AM 82.2°F27.9°C 75.1°F23.9°C 79% 5.4 mph SSE8.7 kmh SSE 7.6 mph12.2 kmh 29.78 in1008.5 mb 0.00 in0.0 mm 0.00 in0.0 mm 0.00 in0.0 mm
08:45 AM 83.5°F28.6°C 76.0°F24.4°C 78% 3.8 mph SSE6.1 kmh SSE 7.6 mph12.2 kmh 29.78 in1008.5 mb 0.00 in0.0 mm 0.00 in0.0 mm 0.00 in0.0 mm
08:50 AM 84.7°F29.3°C 76.4°F24.7°C 76% 4.5 mph SE7.2 kmh SE 7.6 mph12.2 kmh 29.78 in1008.5 mb 0.00 in0.0 mm 0.00 in0.0 mm 0.00 in0.0 mm
08:55 AM 86.0°F30.0°C 77.2°F25.1°C 75% 4.5 mph SE7.2 kmh SE 9.2 mph14.8 kmh 29.78 in1008.5 mb 0.00 in0.0 mm 0.00 in0.0 mm 0.00 in0.0 mm
09:00 AM 87.1°F30.6°C 77.4°F25.2°C 73% 3.8 mph SE6.1 kmh SE 9.2 mph14.8 kmh 29.78 in1008.5 mb 0.00 in0.0 mm 0.00 in0.0 mm 0.00 in0.0 mm
09:05 AM 88.2°F31.2°C 78.1°F25.6°C 72% 3.8 mph SE6.1 kmh SE 8.3 mph13.4 kmh 29.78 in1008.5 mb 0.00 in0.0 mm 0.00 in0.0 mm 0.00 in0.0 mm
09:10 AM 89.1°F31.7°C 78.1°F25.6°C 70% 3.1 mph SE5.0 kmh SE 9.2 mph14.8 kmh 29.78 in1008.5 mb 0.00 in0.0 mm 0.00 in0.0 mm 0.00 in0.0 mm
09:15 AM 89.8°F32.1°C 78.3°F25.7°C 69% 3.8 mph SSE6.1 kmh SSE 9.2 mph14.8 kmh 29.78 in1008.5 mb 0.00 in0.0 mm 0.00 in0.0 mm 0.00 in0.0 mm
09:20 AM 89.8°F32.1°C 78.3°F25.7°C 69% 4.5 mph SE7.2 kmh SE 8.3 mph13.4 kmh 29.78 in1008.5 mb 0.00 in0.0 mm 0.00 in0.0 mm 0.00 in0.0 mm
09:25 AM 90.1°F32.3°C 78.2°F25.7°C 68% 5.4 mph SSE8.7 kmh SSE 9.2 mph14.8 kmh 29.78 in1008.5 mb 0.00 in0.0 mm 0.00 in0.0 mm 0.00 in0.0 mm
09:30 AM 90.5°F32.5°C 78.6°F25.9°C 68% 5.4 mph SE8.7 kmh SE 9.2 mph14.8 kmh 29.79 in1008.8 mb 0.00 in0.0 mm 0.00 in0.0 mm 0.00 in0.0 mm
09:35 AM 90.9°F32.7°C 78.9°F26.1°C 68% 4.5 mph SSE7.2 kmh SSE 9.2 mph14.8 kmh 29.78 in1008.5 mb 0.00 in0.0 mm 0.00 in0.0 mm 0.00 in0.0 mm
09:40 AM 91.8°F33.2°C 79.3°F26.3°C 67% 5.4 mph SE8.7 kmh SE 9.2 mph14.8 kmh 29.79 in1008.8 mb 0.00 in0.0 mm 0.00 in0.0 mm 0.00 in0.0 mm
09:45 AM 92.3°F33.5°C 79.4°F26.3°C 66% 6.9 mph SE11.1 kmh SE 9.2 mph14.8 kmh 29.78 in1008.5 mb 0.00 in0.0 mm 0.00 in0.0 mm 0.00 in0.0 mm
09:50 AM 92.7°F33.7°C 79.3°F26.3°C 65% 6.0 mph SSE9.7 kmh SSE 9.2 mph14.8 kmh 29.79 in1008.8 mb 0.00 in0.0 mm 0.00 in0.0 mm 0.00 in0.0 mm
09:55 AM 93.2°F34.0°C 79.3°F26.3°C 64% 4.5 mph SSE7.2 kmh SSE 9.2 mph14.8 kmh 29.79 in1008.8 mb 0.00 in0.0 mm 0.00 in0.0 mm 0.00 in0.0 mm
10:00 AM 93.4°F34.1°C 79.5°F26.4°C 64% 7.6 mph SE12.2 kmh SE 10.7 mph17.2 kmh 29.79 in1008.8 mb 0.00 in0.0 mm 0.00 in0.0 mm 0.00 in0.0 mm
10:05 AM 93.9°F34.4°C 79.5°F26.4°C 63% 6.0 mph SE9.7 kmh SE 10.7 mph17.2 kmh 29.79 in1008.8 mb 0.00 in0.0 mm 0.00 in0.0 mm 0.00 in0.0 mm
10:10 AM 94.3°F34.6°C 79.8°F26.6°C 63% 6.9 mph SE11.1 kmh SE 10.7 mph17.2 kmh 29.79 in1008.8 mb 0.00 in0.0 mm 0.00 in0.0 mm 0.00 in0.0 mm
10:15 AM 94.6°F34.8°C 80.2°F26.8°C 63% 6.9 mph SE11.1 kmh SE 9.8 mph15.8 kmh 29.78 in1008.5 mb 0.00 in0.0 mm 0.00 in0.0 mm 0.00 in0.0 mm
10:20 AM 94.6°F34.8°C 79.7°F26.5°C 62% 5.4 mph SSE8.7 kmh SSE 9.8 mph15.8 kmh 29.79 in1008.8 mb 0.00 in0.0 mm 0.00 in0.0 mm 0.00 in0.0 mm
10:25 AM 95.4°F35.2°C 80.4°F26.9°C 62% 5.4 mph S8.7 kmh S 8.3 mph13.4 kmh 29.79 in1008.8 mb 0.00 in0.0 mm 0.00 in0.0 mm 0.00 in0.0 mm
10:30 AM 95.9°F35.5°C 80.4°F26.9°C 61% 3.8 mph SE6.1 kmh SE 7.6 mph12.2 kmh 29.78 in1008.5 mb 0.00 in0.0 mm 0.00 in0.0 mm 0.00 in0.0 mm
10:35 AM 96.6°F35.9°C 80.5°F26.9°C 60% 6.0 mph SE9.7 kmh SE 9.2 mph14.8 kmh 29.79 in1008.8 mb 0.00 in0.0 mm 0.00 in0.0 mm 0.00 in0.0 mm
10:40 AM 97.0°F36.1°C 80.9°F27.2°C 60% 6.0 mph SE9.7 kmh SE 9.2 mph14.8 kmh 29.79 in1008.8 mb 0.00 in0.0 mm 0.00 in0.0 mm 0.00 in0.0 mm
10:45 AM 97.3°F36.3°C 80.7°F27.1°C 59% 4.5 mph SE7.2 kmh SE 9.2 mph14.8 kmh 29.79 in1008.8 mb 0.00 in0.0 mm 0.00 in0.0 mm 0.00 in0.0 mm
10:50 AM 97.9°F36.6°C 81.2°F27.3°C 59% 4.5 mph SSE7.2 kmh SSE 8.3 mph13.4 kmh 29.80 in1009.1 mb 0.00 in0.0 mm 0.00 in0.0 mm 0.00 in0.0 mm
10:55 AM 98.4°F36.9°C 81.2°F27.3°C 58% 4.5 mph S7.2 kmh S 8.3 mph13.4 kmh 29.79 in1008.8 mb 0.00 in0.0 mm 0.00 in0.0 mm 0.00 in0.0 mm
11:00 AM 99.0°F37.2°C 81.7°F27.6°C 58% 6.9 mph SSE11.1 kmh SSE 9.2 mph14.8 kmh 29.79 in1008.8 mb 0.00 in0.0 mm 0.00 in0.0 mm 0.00 in0.0 mm
11:05 AM 99.3°F37.4°C 81.5°F27.5°C 57% 1.6 mph SSE2.6 kmh SSE 9.8 mph15.8 kmh 29.79 in1008.8 mb 0.00 in0.0 mm 0.00 in0.0 mm 0.00 in0.0 mm
11:10 AM 100.0°F37.8°C 82.2°F27.9°C 57% 4.5 mph S7.2 kmh S 9.8 mph15.8 kmh 29.78 in1008.5 mb 0.00 in0.0 mm 0.00 in0.0 mm 0.00 in0.0 mm
11:15 AM 100.0°F37.8°C 81.6°F27.6°C 56% 4.5 mph S7.2 kmh S 10.7 mph17.2 kmh 29.78 in1008.5 mb 0.00 in0.0 mm 0.00 in0.0 mm 0.00 in0.0 mm
11:20 AM 99.5°F37.5°C 81.1°F27.3°C 56% 8.3 mph S13.4 kmh S 11.4 mph18.3 kmh 29.78 in1008.5 mb 0.00 in0.0 mm 0.00 in0.0 mm 0.00 in0.0 mm
11:25 AM 98.4°F36.9°C 80.7°F27.1°C 57% 6.0 mph S9.7 kmh S 11.4 mph18.3 kmh 29.78 in1008.5 mb 0.00 in0.0 mm 0.00 in0.0 mm 0.00 in0.0 mm
11:30 AM 97.9°F36.6°C 80.7°F27.1°C 58% 6.9 mph S11.1 kmh S 10.7 mph17.2 kmh 29.78 in1008.5 mb 0.00 in0.0 mm 0.00 in0.0 mm 0.00 in0.0 mm
11:35 AM 97.3°F36.3°C 80.2°F26.8°C 58% 6.9 mph S11.1 kmh S 10.7 mph17.2 kmh 29.77 in1008.1 mb 0.00 in0.0 mm 0.00 in0.0 mm 0.00 in0.0 mm
11:40 AM 97.9°F36.6°C 81.2°F27.3°C 59% 6.9 mph S11.1 kmh S 11.4 mph18.3 kmh 29.77 in1008.1 mb 0.00 in0.0 mm 0.00 in0.0 mm 0.00 in0.0 mm
11:45 AM 99.1°F37.3°C 81.9°F27.7°C 58% 4.5 mph S7.2 kmh S 11.4 mph18.3 kmh 29.77 in1008.1 mb 0.00 in0.0 mm 0.00 in0.0 mm 0.00 in0.0 mm
11:50 AM 100.0°F37.8°C 82.2°F27.9°C 57% 1.6 mph SSW2.6 kmh SSW 8.3 mph13.4 kmh 29.77 in1008.1 mb 0.00 in0.0 mm 0.00 in0.0 mm 0.00 in0.0 mm
11:55 AM 101.3°F38.5°C 82.8°F28.2°C 56% 5.4 mph S8.7 kmh S 7.6 mph12.2 kmh 29.77 in1008.1 mb 0.00 in0.0 mm 0.00 in0.0 mm 0.00 in0.0 mm
12:00 PM 101.8°F38.8°C 82.7°F28.2°C 55% 1.6 mph SSE2.6 kmh SSE 6.9 mph11.1 kmh 29.76 in1007.8 mb 0.00 in0.0 mm 0.00 in0.0 mm 0.00 in0.0 mm
12:05 PM 101.8°F38.8°C 82.2°F27.9°C 54% 2.2 mph SSW3.5 kmh SSW 6.9 mph11.1 kmh 29.77 in1008.1 mb 0.00 in0.0 mm 0.00 in0.0 mm 0.00 in0.0 mm
12:10 PM 100.6°F38.1°C 81.6°F27.6°C 55% 1.6 mph WSW2.6 kmh WSW 5.4 mph8.7 kmh 29.76 in1007.8 mb 0.00 in0.0 mm 0.00 in0.0 mm 0.00 in0.0 mm
12:15 PM 100.0°F37.8°C 82.2°F27.9°C 57% 3.8 mph SW6.1 kmh SW 7.6 mph12.2 kmh 29.77 in1008.1 mb 0.00 in0.0 mm 0.00 in0.0 mm 0.00 in0.0 mm
12:20 PM 102.2°F39.0°C 83.1°F28.4°C 55% 3.8 mph S6.1 kmh S 8.3 mph13.4 kmh 29.76 in1007.8 mb 0.00 in0.0 mm 0.00 in0.0 mm 0.00 in0.0 mm
12:25 PM 103.3°F39.6°C 82.9°F28.3°C 53% 1.6 mph SSE2.6 kmh SSE 8.3 mph13.4 kmh 29.76 in1007.8 mb 0.00 in0.0 mm 0.00 in0.0 mm 0.00 in0.0 mm
12:30 PM 104.7°F40.4°C 83.7°F28.7°C 52% 1.6 mph SE2.6 kmh SE 7.6 mph12.2 kmh 29.76 in1007.8 mb 0.00 in0.0 mm 0.00 in0.0 mm 0.00 in0.0 mm
12:35 PM 106.2°F41.2°C 83.8°F28.8°C 50% 5.4 mph SSE8.7 kmh SSE 8.3 mph13.4 kmh 29.76 in1007.8 mb 0.00 in0.0 mm 0.00 in0.0 mm 0.00 in0.0 mm
12:40 PM 106.9°F41.6°C 84.4°F29.1°C 50% 1.6 mph S2.6 kmh S 8.3 mph13.4 kmh 29.76 in1007.8 mb 0.00 in0.0 mm 0.00 in0.0 mm 0.00 in0.0 mm
12:45 PM 107.4°F41.9°C 83.7°F28.7°C 48% 3.1 mph SSE5.0 kmh SSE 8.3 mph13.4 kmh 29.75 in1007.5 mb 0.00 in0.0 mm 0.00 in0.0 mm 0.00 in0.0 mm
12:50 PM 108.0°F42.2°C 84.2°F29.0°C 48% 3.8 mph SE6.1 kmh SE 6.9 mph11.1 kmh 29.75 in1007.5 mb 0.00 in0.0 mm 0.00 in0.0 mm 0.00 in0.0 mm
12:55 PM 107.1°F41.7°C 83.3°F28.5°C 48% 1.6 mph ESE2.6 kmh ESE 6.9 mph11.1 kmh 29.75 in1007.5 mb 0.00 in0.0 mm 0.00 in0.0 mm 0.00 in0.0 mm
01:00 PM 105.1°F40.6°C 82.8°F28.2°C 50% 7.6 mph E12.2 kmh E 9.8 mph15.8 kmh 29.75 in1007.5 mb 0.00 in0.0 mm 0.00 in0.0 mm 0.00 in0.0 mm
01:05 PM 104.4°F40.2°C 82.1°F27.8°C 50% 7.6 mph E12.2 kmh E 10.7 mph17.2 kmh 29.74 in1007.1 mb 0.00 in0.0 mm 0.00 in0.0 mm 0.00 in0.0 mm
01:10 PM 102.0°F38.9°C 80.6°F27.0°C 51% 6.0 mph E9.7 kmh E 12.1 mph19.5 kmh 29.74 in1007.1 mb 0.00 in0.0 mm 0.00 in0.0 mm 0.00 in0.0 mm
01:15 PM 99.9°F37.7°C 79.8°F26.6°C 53% 6.9 mph E11.1 kmh E 12.1 mph19.5 kmh 29.75 in1007.5 mb 0.00 in0.0 mm 0.00 in0.0 mm 0.00 in0.0 mm
01:20 PM 98.2°F36.8°C 78.8°F26.0°C 54% 4.5 mph E7.2 kmh E 10.7 mph17.2 kmh 29.75 in1007.5 mb 0.00 in0.0 mm 0.00 in0.0 mm 0.00 in0.0 mm
01:25 PM 97.2°F36.2°C 78.9°F26.1°C 56% 4.5 mph ENE7.2 kmh ENE 9.2 mph14.8 kmh 29.74 in1007.1 mb 0.00 in0.0 mm 0.00 in0.0 mm 0.00 in0.0 mm
01:30 PM 96.3°F35.7°C 78.1°F25.6°C 56% 5.4 mph NE8.7 kmh NE 9.2 mph14.8 kmh 29.73 in1006.8 mb 0.00 in0.0 mm 0.00 in0.0 mm 0.00 in0.0 mm
01:35 PM 95.7°F35.4°C 78.1°F25.6°C 57% 4.5 mph NE7.2 kmh NE 8.3 mph13.4 kmh 29.73 in1006.8 mb 0.00 in0.0 mm 0.00 in0.0 mm 0.00 in0.0 mm
01:40 PM 96.6°F35.9°C 79.0°F26.1°C 57% 6.0 mph NE9.7 kmh NE 7.6 mph12.2 kmh 29.74 in1007.1 mb 0.00 in0.0 mm 0.00 in0.0 mm 0.00 in0.0 mm
01:45 PM 97.9°F36.6°C 79.1°F26.2°C 55% 5.4 mph NE8.7 kmh NE 9.8 mph15.8 kmh 29.73 in1006.8 mb 0.00 in0.0 mm 0.00 in0.0 mm 0.00 in0.0 mm
01:50 PM 97.2°F36.2°C 77.8°F25.4°C 54% 5.4 mph NE8.7 kmh NE 9.8 mph15.8 kmh 29.73 in1006.8 mb 0.00 in0.0 mm 0.00 in0.0 mm 0.00 in0.0 mm
01:55 PM 95.9°F35.5°C 77.2°F25.1°C 55% 9.2 mph NE14.8 kmh NE 11.4 mph18.3 kmh 29.73 in1006.8 mb 0.00 in0.0 mm 0.00 in0.0 mm 0.00 in0.0 mm
02:00 PM 94.8°F34.9°C 76.8°F24.9°C 56% 5.4 mph NE8.7 kmh NE 11.4 mph18.3 kmh 29.73 in1006.8 mb 0.00 in0.0 mm 0.00 in0.0 mm 0.00 in0.0 mm
02:05 PM 93.6°F34.2°C 76.1°F24.5°C 57% 3.8 mph NE6.1 kmh NE 11.4 mph18.3 kmh 29.73 in1006.8 mb 0.00 in0.0 mm 0.00 in0.0 mm 0.00 in0.0 mm
02:10 PM 92.8°F33.8°C 76.0°F24.4°C 58% 6.9 mph N11.1 kmh N 14.5 mph23.3 kmh 29.73 in1006.8 mb 0.00 in0.0 mm 0.00 in0.0 mm 0.00 in0.0 mm
02:15 PM 91.9°F33.3°C 75.1°F23.9°C 58% 5.4 mph NW8.7 kmh NW 14.5 mph23.3 kmh 29.73 in1006.8 mb 0.00 in0.0 mm 0.00 in0.0 mm 0.00 in0.0 mm
02:20 PM 91.2°F32.9°C 75.0°F23.9°C 59% 5.4 mph NW8.7 kmh NW 13.6 mph21.9 kmh 29.72 in1006.4 mb 0.00 in0.0 mm 0.00 in0.0 mm 0.00 in0.0 mm
02:25 PM 90.1°F32.3°C 74.5°F23.6°C 60% 6.9 mph NNW11.1 kmh NNW 9.8 mph15.8 kmh 29.73 in1006.8 mb 0.05 in1.3 mm 0.60 in15.2 mm 0.05 in1.3 mm
02:30 PM 89.4°F31.9°C 74.3°F23.5°C 61% 6.0 mph NW9.7 kmh NW 9.8 mph15.8 kmh 29.74 in1007.1 mb 0.07 in1.8 mm 0.24 in6.1 mm 0.07 in1.8 mm
02:35 PM 89.4°F31.9°C 74.3°F23.5°C 61% 6.0 mph W9.7 kmh W 9.8 mph15.8 kmh 29.74 in1007.1 mb 0.07 in1.8 mm 0.00 in0.0 mm 0.07 in1.8 mm
02:40 PM 89.4°F31.9°C 74.3°F23.5°C 61% 6.0 mph W9.7 kmh W 9.8 mph15.8 kmh 29.73 in1006.8 mb 0.07 in1.8 mm 0.00 in0.0 mm 0.07 in1.8 mm
02:45 PM 89.4°F31.9°C 74.3°F23.5°C 61% 6.0 mph W9.7 kmh W 9.8 mph15.8 kmh 29.74 in1007.1 mb 0.07 in1.8 mm 0.00 in0.0 mm 0.07 in1.8 mm
02:50 PM 89.4°F31.9°C 74.3°F23.5°C 61% 6.0 mph W9.7 kmh W 9.8 mph15.8 kmh 29.73 in1006.8 mb 0.07 in1.8 mm 0.00 in0.0 mm 0.07 in1.8 mm
02:55 PM 89.4°F31.9°C 74.3°F23.5°C 61% 6.0 mph W9.7 kmh W 9.8 mph15.8 kmh 29.73 in1006.8 mb 0.07 in1.8 mm 0.00 in0.0 mm 0.07 in1.8 mm
03:00 PM 89.4°F31.9°C 74.3°F23.5°C 61% 6.0 mph W9.7 kmh W 9.8 mph15.8 kmh 29.73 in1006.8 mb 0.07 in1.8 mm 0.00 in0.0 mm 0.07 in1.8 mm
03:05 PM 89.4°F31.9°C 74.3°F23.5°C 61% 6.0 mph W9.7 kmh W 9.8 mph15.8 kmh 29.72 in1006.4 mb 0.07 in1.8 mm 0.00 in0.0 mm 0.07 in1.8 mm
03:10 PM 89.4°F31.9°C 74.3°F23.5°C 61% 6.0 mph W9.7 kmh W 9.8 mph15.8 kmh 29.72 in1006.4 mb 0.07 in1.8 mm 0.00 in0.0 mm 0.07 in1.8 mm
03:15 PM 89.4°F31.9°C 74.3°F23.5°C 61% 6.0 mph W9.7 kmh W 9.8 mph15.8 kmh 29.72 in1006.4 mb 0.07 in1.8 mm 0.00 in0.0 mm 0.07 in1.8 mm
03:20 PM 89.4°F31.9°C 74.3°F23.5°C 61% 6.0 mph W9.7 kmh W 9.8 mph15.8 kmh 29.72 in1006.4 mb 0.07 in1.8 mm 0.00 in0.0 mm 0.07 in1.8 mm
03:25 PM 89.4°F31.9°C 74.3°F23.5°C 61% 6.0 mph W9.7 kmh W 9.8 mph15.8 kmh 29.72 in1006.4 mb 0.02 in0.5 mm 0.00 in0.0 mm 0.07 in1.8 mm
03:30 PM 89.4°F31.9°C 74.3°F23.5°C 61% 6.0 mph W9.7 kmh W 9.8 mph15.8 kmh 29.72 in1006.4 mb 0.00 in0.0 mm 0.00 in0.0 mm 0.07 in1.8 mm
03:35 PM 89.4°F31.9°C 74.3°F23.5°C 61% 6.0 mph W9.7 kmh W 9.8 mph15.8 kmh 29.72 in1006.4 mb 0.00 in0.0 mm 0.00 in0.0 mm 0.07 in1.8 mm
03:40 PM 89.4°F31.9°C 74.3°F23.5°C 61% 6.0 mph W9.7 kmh W 9.8 mph15.8 kmh 29.71 in1006.1 mb 0.00 in0.0 mm 0.00 in0.0 mm 0.07 in1.8 mm
03:45 PM 89.4°F31.9°C 74.3°F23.5°C 61% 6.0 mph W9.7 kmh W 9.8 mph15.8 kmh 29.71 in1006.1 mb 0.00 in0.0 mm 0.00 in0.0 mm 0.07 in1.8 mm
03:50 PM 89.4°F31.9°C 74.3°F23.5°C 61% 6.0 mph W9.7 kmh W 9.8 mph15.8 kmh 29.71 in1006.1 mb 0.00 in0.0 mm 0.00 in0.0 mm 0.07 in1.8 mm
03:55 PM 89.4°F31.9°C 74.3°F23.5°C 61% 6.0 mph W9.7 kmh W 9.8 mph15.8 kmh 29.71 in1006.1 mb 0.00 in0.0 mm 0.00 in0.0 mm 0.07 in1.8 mm
04:00 PM 89.4°F31.9°C 74.3°F23.5°C 61% 6.0 mph W9.7 kmh W 9.8 mph15.8 kmh 29.71 in1006.1 mb 0.00 in0.0 mm 0.00 in0.0 mm 0.07 in1.8 mm
04:05 PM 89.4°F31.9°C 74.3°F23.5°C 61% 6.0 mph W9.7 kmh W 9.8 mph15.8 kmh 29.71 in1006.1 mb 0.00 in0.0 mm 0.00 in0.0 mm 0.07 in1.8 mm
04:10 PM 89.4°F31.9°C 74.3°F23.5°C 61% 6.0 mph W9.7 kmh W 9.8 mph15.8 kmh 29.72 in1006.4 mb 0.00 in0.0 mm 0.00 in0.0 mm 0.07 in1.8 mm
04:15 PM 89.4°F31.9°C 74.3°F23.5°C 61% 6.0 mph W9.7 kmh W 9.8 mph15.8 kmh 29.71 in1006.1 mb 0.00 in0.0 mm 0.00 in0.0 mm 0.07 in1.8 mm
04:20 PM 89.4°F31.9°C 74.3°F23.5°C 61% 6.0 mph W9.7 kmh W 9.8 mph15.8 kmh 29.71 in1006.1 mb 0.00 in0.0 mm 0.00 in0.0 mm 0.07 in1.8 mm
04:25 PM 89.4°F31.9°C 74.3°F23.5°C 61% 6.0 mph W9.7 kmh W 9.8 mph15.8 kmh 29.71 in1006.1 mb 0.00 in0.0 mm 0.00 in0.0 mm 0.07 in1.8 mm
04:30 PM 89.4°F31.9°C 74.3°F23.5°C 61% 6.0 mph W9.7 kmh W 9.8 mph15.8 kmh 29.71 in1006.1 mb 0.00 in0.0 mm 0.00 in0.0 mm 0.07 in1.8 mm
04:35 PM 89.4°F31.9°C 74.3°F23.5°C 61% 6.0 mph W9.7 kmh W 9.8 mph15.8 kmh 29.70 in1005.8 mb 0.00 in0.0 mm 0.00 in0.0 mm 0.07 in1.8 mm
04:40 PM 89.4°F31.9°C 74.3°F23.5°C 61% 6.0 mph W9.7 kmh W 9.8 mph15.8 kmh 29.70 in1005.8 mb 0.00 in0.0 mm 0.00 in0.0 mm 0.07 in1.8 mm
04:45 PM 89.4°F31.9°C 74.3°F23.5°C 61% 6.0 mph W9.7 kmh W 9.8 mph15.8 kmh 29.70 in1005.8 mb 0.00 in0.0 mm 0.00 in0.0 mm 0.07 in1.8 mm
04:50 PM 89.4°F31.9°C 74.3°F23.5°C 61% 6.0 mph W9.7 kmh W 9.8 mph15.8 kmh 29.70 in1005.8 mb 0.00 in0.0 mm 0.00 in0.0 mm 0.07 in1.8 mm
04:55 PM 89.4°F31.9°C 74.3°F23.5°C 61% 6.0 mph W9.7 kmh W 9.8 mph15.8 kmh 29.71 in1006.1 mb 0.00 in0.0 mm 0.00 in0.0 mm 0.07 in1.8 mm
05:00 PM 89.4°F31.9°C 74.3°F23.5°C 61% 6.0 mph W9.7 kmh W 9.8 mph15.8 kmh 29.71 in1006.1 mb 0.00 in0.0 mm 0.00 in0.0 mm 0.07 in1.8 mm
05:05 PM 89.4°F31.9°C 74.3°F23.5°C 61% 6.0 mph W9.7 kmh W 9.8 mph15.8 kmh 29.72 in1006.4 mb 0.00 in0.0 mm 0.00 in0.0 mm 0.07 in1.8 mm
05:10 PM 89.4°F31.9°C 74.3°F23.5°C 61% 6.0 mph W9.7 kmh W 9.8 mph15.8 kmh 29.71 in1006.1 mb 0.00 in0.0 mm 0.00 in0.0 mm 0.07 in1.8 mm
05:15 PM 89.4°F31.9°C 74.3°F23.5°C 61% 6.0 mph W9.7 kmh W 9.8 mph15.8 kmh 29.72 in1006.4 mb 0.00 in0.0 mm 0.00 in0.0 mm 0.07 in1.8 mm
05:20 PM 89.4°F31.9°C 74.3°F23.5°C 61% 6.0 mph W9.7 kmh W 9.8 mph15.8 kmh 29.72 in1006.4 mb 0.00 in0.0 mm 0.00 in0.0 mm 0.07 in1.8 mm
05:25 PM 89.4°F31.9°C 74.3°F23.5°C 61% 6.0 mph W9.7 kmh W 9.8 mph15.8 kmh 29.73 in1006.8 mb 0.00 in0.0 mm 0.00 in0.0 mm 0.07 in1.8 mm
05:30 PM 89.4°F31.9°C 74.3°F23.5°C 61% 6.0 mph W9.7 kmh W 9.8 mph15.8 kmh 29.74 in1007.1 mb 0.00 in0.0 mm 0.00 in0.0 mm 0.07 in1.8 mm
05:35 PM 89.4°F31.9°C 74.3°F23.5°C 61% 6.0 mph W9.7 kmh W 9.8 mph15.8 kmh 29.74 in1007.1 mb 0.00 in0.0 mm 0.00 in0.0 mm 0.07 in1.8 mm
05:40 PM 89.4°F31.9°C 74.3°F23.5°C 61% 6.0 mph W9.7 kmh W 9.8 mph15.8 kmh 29.74 in1007.1 mb 0.00 in0.0 mm 0.00 in0.0 mm 0.07 in1.8 mm
05:45 PM 89.4°F31.9°C 74.3°F23.5°C 61% 6.0 mph W9.7 kmh W 9.8 mph15.8 kmh 29.73 in1006.8 mb 0.00 in0.0 mm 0.00 in0.0 mm 0.07 in1.8 mm
05:50 PM 89.4°F31.9°C 74.3°F23.5°C 61% 6.0 mph W9.7 kmh W 9.8 mph15.8 kmh 29.73 in1006.8 mb 0.00 in0.0 mm 0.00 in0.0 mm 0.07 in1.8 mm
05:55 PM 89.4°F31.9°C 74.3°F23.5°C 61% 6.0 mph W9.7 kmh W 9.8 mph15.8 kmh 29.73 in1006.8 mb 0.00 in0.0 mm 0.00 in0.0 mm 0.07 in1.8 mm
06:00 PM 89.4°F31.9°C 74.3°F23.5°C 61% 6.0 mph W9.7 kmh W 9.8 mph15.8 kmh 29.72 in1006.4 mb 0.00 in0.0 mm 0.00 in0.0 mm 0.07 in1.8 mm
06:05 PM 81.9°F27.7°C 71.6°F22.0°C 71% 3.1 mph SW5.0 kmh SW 4.5 mph7.2 kmh 29.72 in1006.4 mb 0.07 in1.8 mm 0.84 in21.3 mm 0.14 in3.6 mm
06:10 PM 81.7°F27.6°C 71.8°F22.1°C 72% 5.4 mph S8.7 kmh S 7.6 mph12.2 kmh 29.72 in1006.4 mb 0.08 in2.0 mm 0.12 in3.0 mm 0.15 in3.8 mm
06:15 PM 81.3°F27.4°C 71.5°F21.9°C 72% 5.4 mph SSE8.7 kmh SSE 7.6 mph12.2 kmh 29.71 in1006.1 mb 0.08 in2.0 mm 0.00 in0.0 mm 0.15 in3.8 mm
06:20 PM 81.0°F27.2°C 71.5°F21.9°C 73% 4.5 mph SE7.2 kmh SE 7.6 mph12.2 kmh 29.71 in1006.1 mb 0.08 in2.0 mm 0.00 in0.0 mm 0.15 in3.8 mm
06:25 PM 80.6°F27.0°C 71.2°F21.8°C 73% 3.8 mph ESE6.1 kmh ESE 7.6 mph12.2 kmh 29.71 in1006.1 mb 0.08 in2.0 mm 0.00 in0.0 mm 0.15 in3.8 mm
06:30 PM 80.4°F26.9°C 71.0°F21.7°C 73% 2.2 mph SE3.5 kmh SE 6.0 mph9.7 kmh 29.72 in1006.4 mb 0.08 in2.0 mm 0.00 in0.0 mm 0.15 in3.8 mm
06:35 PM 80.1°F26.7°C 71.1°F21.7°C 74% 1.6 mph E2.6 kmh E 4.5 mph7.2 kmh 29.73 in1006.8 mb 0.08 in2.0 mm 0.00 in0.0 mm 0.15 in3.8 mm
06:40 PM 79.9°F26.6°C 70.9°F21.6°C 74% 1.6 mph ENE2.6 kmh ENE 4.5 mph7.2 kmh 29.73 in1006.8 mb 0.08 in2.0 mm 0.00 in0.0 mm 0.15 in3.8 mm
06:45 PM 79.7°F26.5°C 70.7°F21.5°C 74% Calm Calm 3.1 mph5.0 kmh 29.73 in1006.8 mb 0.08 in2.0 mm 0.00 in0.0 mm 0.15 in3.8 mm
06:50 PM 79.7°F26.5°C 71.1°F21.7°C 75% 1.6 mph ESE2.6 kmh ESE 5.4 mph8.7 kmh 29.72 in1006.4 mb 0.08 in2.0 mm 0.00 in0.0 mm 0.15 in3.8 mm
06:55 PM 79.3°F26.3°C 70.8°F21.6°C 75% 0.7 mph ESE1.1 kmh ESE 5.4 mph8.7 kmh 29.72 in1006.4 mb 0.08 in2.0 mm 0.00 in0.0 mm 0.15 in3.8 mm
07:00 PM 79.3°F26.3°C 70.8°F21.6°C 75% 1.6 mph SE2.6 kmh SE 3.8 mph6.1 kmh 29.73 in1006.8 mb 0.01 in0.3 mm 0.00 in0.0 mm 0.15 in3.8 mm
07:05 PM 79.3°F26.3°C 70.8°F21.6°C 75% 0.7 mph E1.1 kmh E 3.1 mph5.0 kmh 29.73 in1006.8 mb 0.01 in0.3 mm 0.00 in0.0 mm 0.15 in3.8 mm
07:10 PM 79.0°F26.1°C 70.4°F21.3°C 75% 3.1 mph S5.0 kmh S 4.5 mph7.2 kmh 29.73 in1006.8 mb 0.00 in0.0 mm 0.00 in0.0 mm 0.15 in3.8 mm
07:15 PM 79.0°F26.1°C 70.4°F21.3°C 75% 1.6 mph SSE2.6 kmh SSE 4.5 mph7.2 kmh 29.72 in1006.4 mb 0.00 in0.0 mm 0.00 in0.0 mm 0.15 in3.8 mm
07:20 PM 79.0°F26.1°C 70.4°F21.3°C 75% 2.2 mph SE3.5 kmh SE 3.8 mph6.1 kmh 29.72 in1006.4 mb 0.00 in0.0 mm 0.00 in0.0 mm 0.15 in3.8 mm
07:25 PM 78.6°F25.9°C 70.1°F21.2°C 75% 2.2 mph SE3.5 kmh SE 3.1 mph5.0 kmh 29.72 in1006.4 mb 0.00 in0.0 mm 0.00 in0.0 mm 0.15 in3.8 mm
07:30 PM 78.6°F25.9°C 70.1°F21.2°C 75% 4.5 mph ESE7.2 kmh ESE 6.0 mph9.7 kmh 29.72 in1006.4 mb 0.00 in0.0 mm 0.00 in0.0 mm 0.15 in3.8 mm
07:35 PM 78.4°F25.8°C 70.3°F21.3°C 76% 3.1 mph ESE5.0 kmh ESE 6.0 mph9.7 kmh 29.71 in1006.1 mb 0.00 in0.0 mm 0.00 in0.0 mm 0.15 in3.8 mm
07:40 PM 78.3°F25.7°C 70.1°F21.2°C 76% 2.2 mph SSE3.5 kmh SSE 6.0 mph9.7 kmh 29.72 in1006.4 mb 0.00 in0.0 mm 0.00 in0.0 mm 0.15 in3.8 mm
07:45 PM 78.1°F25.6°C 69.9°F21.1°C 76% 3.1 mph S5.0 kmh S 4.5 mph7.2 kmh 29.72 in1006.4 mb 0.00 in0.0 mm 0.00 in0.0 mm 0.15 in3.8 mm
07:50 PM 78.1°F25.6°C 69.9°F21.1°C 76% 4.5 mph S7.2 kmh S 6.9 mph11.1 kmh 29.73 in1006.8 mb 0.00 in0.0 mm 0.00 in0.0 mm 0.15 in3.8 mm
07:55 PM 77.9°F25.5°C 69.8°F21.0°C 76% 0.7 mph S1.1 kmh S 6.9 mph11.1 kmh 29.73 in1006.8 mb 0.00 in0.0 mm 0.00 in0.0 mm 0.15 in3.8 mm
08:00 PM 77.9°F25.5°C 69.8°F21.0°C 76% Calm Calm 6.0 mph9.7 kmh 29.73 in1006.8 mb 0.00 in0.0 mm 0.00 in0.0 mm 0.15 in3.8 mm
08:05 PM 77.7°F25.4°C 69.6°F20.9°C 76% 3.8 mph WSW6.1 kmh WSW 4.5 mph7.2 kmh 29.74 in1007.1 mb 0.00 in0.0 mm 0.00 in0.0 mm 0.15 in3.8 mm
08:10 PM 77.5°F25.3°C 69.8°F21.0°C 77% 2.2 mph WSW3.5 kmh WSW 5.4 mph8.7 kmh 29.75 in1007.5 mb 0.00 in0.0 mm 0.00 in0.0 mm 0.15 in3.8 mm
08:15 PM 77.4°F25.2°C 69.6°F20.9°C 77% 2.2 mph WSW3.5 kmh WSW 5.4 mph8.7 kmh 29.75 in1007.5 mb 0.00 in0.0 mm 0.00 in0.0 mm 0.15 in3.8 mm
08:20 PM 77.5°F25.3°C 69.8°F21.0°C 77% 3.1 mph SSW5.0 kmh SSW 4.5 mph7.2 kmh 29.75 in1007.5 mb 0.00 in0.0 mm 0.00 in0.0 mm 0.15 in3.8 mm
08:25 PM 77.5°F25.3°C 69.8°F21.0°C 77% 3.1 mph SSE5.0 kmh SSE 4.5 mph7.2 kmh 29.75 in1007.5 mb 0.00 in0.0 mm 0.00 in0.0 mm 0.15 in3.8 mm
08:30 PM 77.4°F25.2°C 69.6°F20.9°C 77% 5.4 mph SE8.7 kmh SE 6.9 mph11.1 kmh 29.75 in1007.5 mb 0.00 in0.0 mm 0.00 in0.0 mm 0.15 in3.8 mm
08:35 PM 77.4°F25.2°C 69.6°F20.9°C 77% 6.0 mph S9.7 kmh S 7.6 mph12.2 kmh 29.76 in1007.8 mb 0.00 in0.0 mm 0.00 in0.0 mm 0.15 in3.8 mm
08:40 PM 77.2°F25.1°C 69.5°F20.8°C 77% 5.4 mph S8.7 kmh S 8.3 mph13.4 kmh 29.76 in1007.8 mb 0.00 in0.0 mm 0.00 in0.0 mm 0.15 in3.8 mm
08:45 PM 77.4°F25.2°C 69.6°F20.9°C 77% 6.0 mph S9.7 kmh S 9.8 mph15.8 kmh 29.75 in1007.5 mb 0.00 in0.0 mm 0.00 in0.0 mm 0.15 in3.8 mm
08:50 PM 77.4°F25.2°C 70.0°F21.1°C 78% 6.9 mph S11.1 kmh S 9.8 mph15.8 kmh 29.75 in1007.5 mb 0.01 in0.3 mm 0.12 in3.0 mm 0.17 in4.3 mm
08:55 PM 77.2°F25.1°C 69.8°F21.0°C 78% 4.5 mph S7.2 kmh S 10.7 mph17.2 kmh 29.76 in1007.8 mb 0.01 in0.3 mm 0.00 in0.0 mm 0.17 in4.3 mm
09:00 PM 77.2°F25.1°C 69.8°F21.0°C 78% 3.1 mph S5.0 kmh S 10.7 mph17.2 kmh 29.76 in1007.8 mb 0.01 in0.3 mm 0.00 in0.0 mm 0.17 in4.3 mm
09:05 PM 77.0°F25.0°C 69.7°F20.9°C 78% 3.1 mph S5.0 kmh S 7.6 mph12.2 kmh 29.76 in1007.8 mb 0.01 in0.3 mm 0.00 in0.0 mm 0.17 in4.3 mm
09:10 PM 77.0°F25.0°C 69.7°F20.9°C 78% 3.1 mph S5.0 kmh S 6.0 mph9.7 kmh 29.76 in1007.8 mb 0.01 in0.3 mm 0.00 in0.0 mm 0.17 in4.3 mm
09:15 PM 76.8°F24.9°C 69.5°F20.8°C 78% 1.6 mph S2.6 kmh S 6.0 mph9.7 kmh 29.76 in1007.8 mb 0.01 in0.3 mm 0.00 in0.0 mm 0.17 in4.3 mm
09:20 PM 76.8°F24.9°C 69.5°F20.8°C 78% 0.7 mph SE1.1 kmh SE 5.4 mph8.7 kmh 29.76 in1007.8 mb 0.01 in0.3 mm 0.00 in0.0 mm 0.17 in4.3 mm
09:25 PM 76.6°F24.8°C 69.3°F20.7°C 78% 0.7 mph SE1.1 kmh SE 5.4 mph8.7 kmh 29.75 in1007.5 mb 0.01 in0.3 mm 0.00 in0.0 mm 0.17 in4.3 mm
09:30 PM 76.5°F24.7°C 69.1°F20.6°C 78% 1.6 mph SSE2.6 kmh SSE 3.8 mph6.1 kmh 29.76 in1007.8 mb 0.01 in0.3 mm 0.00 in0.0 mm 0.17 in4.3 mm
09:35 PM 76.3°F24.6°C 69.0°F20.6°C 78% 2.2 mph S3.5 kmh S 3.1 mph5.0 kmh 29.76 in1007.8 mb 0.01 in0.3 mm 0.00 in0.0 mm 0.17 in4.3 mm
09:40 PM 76.1°F24.5°C 68.8°F20.4°C 78% 3.1 mph S5.0 kmh S 3.1 mph5.0 kmh 29.76 in1007.8 mb 0.01 in0.3 mm 0.00 in0.0 mm 0.17 in4.3 mm
09:45 PM 75.9°F24.4°C 68.6°F20.3°C 78% Calm Calm 3.1 mph5.0 kmh 29.76 in1007.8 mb 0.01 in0.3 mm 0.00 in0.0 mm 0.17 in4.3 mm
09:50 PM 75.7°F24.3°C 68.4°F20.2°C 78% 1.6 mph S2.6 kmh S 3.1 mph5.0 kmh 29.76 in1007.8 mb 0.00 in0.0 mm 0.00 in0.0 mm 0.17 in4.3 mm
09:55 PM 75.7°F24.3°C 68.4°F20.2°C 78% 0.7 mph SW1.1 kmh SW 2.2 mph3.5 kmh 29.76 in1007.8 mb 0.00 in0.0 mm 0.00 in0.0 mm 0.17 in4.3 mm
10:00 PM 75.6°F24.2°C 68.3°F20.2°C 78% 0.7 mph SW1.1 kmh SW 2.2 mph3.5 kmh 29.75 in1007.5 mb 0.00 in0.0 mm 0.00 in0.0 mm 0.17 in4.3 mm
10:05 PM 75.6°F24.2°C 68.3°F20.2°C 78% Calm Calm 2.2 mph3.5 kmh 29.76 in1007.8 mb 0.00 in0.0 mm 0.00 in0.0 mm 0.17 in4.3 mm
10:10 PM 75.4°F24.1°C 68.5°F20.3°C 79% Calm Calm 2.2 mph3.5 kmh 29.75 in1007.5 mb 0.00 in0.0 mm 0.00 in0.0 mm 0.17 in4.3 mm
10:15 PM 75.0°F23.9°C 68.1°F20.1°C 79% Calm Calm -- 29.75 in1007.5 mb 0.00 in0.0 mm 0.00 in0.0 mm 0.17 in4.3 mm
10:20 PM 75.2°F24.0°C 68.3°F20.2°C 79% Calm Calm -- 29.75 in1007.5 mb 0.00 in0.0 mm 0.00 in0.0 mm 0.17 in4.3 mm
10:25 PM 75.2°F24.0°C 68.3°F20.2°C 79% 4.5 mph SW7.2 kmh SW 5.4 mph8.7 kmh 29.76 in1007.8 mb 0.00 in0.0 mm 0.00 in0.0 mm 0.17 in4.3 mm
10:30 PM 75.0°F23.9°C 68.1°F20.1°C 79% 6.9 mph SW11.1 kmh SW 7.6 mph12.2 kmh 29.76 in1007.8 mb 0.00 in0.0 mm 0.00 in0.0 mm 0.17 in4.3 mm
10:35 PM 75.0°F23.9°C 68.1°F20.1°C 79% 7.6 mph SW12.2 kmh SW 9.8 mph15.8 kmh 29.77 in1008.1 mb 0.00 in0.0 mm 0.00 in0.0 mm 0.17 in4.3 mm
10:40 PM 75.0°F23.9°C 68.1°F20.1°C 79% 6.0 mph SW9.7 kmh SW 9.8 mph15.8 kmh 29.77 in1008.1 mb 0.00 in0.0 mm 0.00 in0.0 mm 0.17 in4.3 mm
10:45 PM 75.0°F23.9°C 68.1°F20.1°C 79% 5.4 mph SW8.7 kmh SW 9.8 mph15.8 kmh 29.77 in1008.1 mb 0.00 in0.0 mm 0.00 in0.0 mm 0.17 in4.3 mm
10:50 PM 74.8°F23.8°C 67.9°F19.9°C 79% 6.0 mph SW9.7 kmh SW 8.3 mph13.4 kmh 29.77 in1008.1 mb 0.00 in0.0 mm 0.00 in0.0 mm 0.17 in4.3 mm
10:55 PM 75.0°F23.9°C 68.5°F20.3°C 80% 4.5 mph SW7.2 kmh SW 7.6 mph12.2 kmh 29.76 in1007.8 mb 0.00 in0.0 mm 0.00 in0.0 mm 0.17 in4.3 mm
11:00 PM 74.8°F23.8°C 68.3°F20.2°C 80% 6.0 mph WSW9.7 kmh WSW 7.6 mph12.2 kmh 29.77 in1008.1 mb 0.00 in0.0 mm 0.00 in0.0 mm 0.17 in4.3 mm
11:05 PM 74.8°F23.8°C 68.3°F20.2°C 80% 3.8 mph WSW6.1 kmh WSW 7.6 mph12.2 kmh 29.76 in1007.8 mb 0.00 in0.0 mm 0.00 in0.0 mm 0.17 in4.3 mm
11:10 PM 74.8°F23.8°C 68.3°F20.2°C 80% 5.4 mph W8.7 kmh W 7.6 mph12.2 kmh 29.75 in1007.5 mb 0.00 in0.0 mm 0.00 in0.0 mm 0.17 in4.3 mm
11:15 PM 74.8°F23.8°C 68.3°F20.2°C 80% 3.1 mph W5.0 kmh W 7.6 mph12.2 kmh 29.76 in1007.8 mb 0.00 in0.0 mm 0.00 in0.0 mm 0.17 in4.3 mm
11:20 PM 74.8°F23.8°C 68.3°F20.2°C 80% 5.4 mph W8.7 kmh W 6.9 mph11.1 kmh 29.76 in1007.8 mb 0.00 in0.0 mm 0.00 in0.0 mm 0.17 in4.3 mm
11:25 PM 74.8°F23.8°C 68.3°F20.2°C 80% 3.1 mph W5.0 kmh W 6.9 mph11.1 kmh 29.76 in1007.8 mb 0.00 in0.0 mm 0.00 in0.0 mm 0.17 in4.3 mm
11:30 PM 74.8°F23.8°C 68.3°F20.2°C 80% 3.8 mph WSW6.1 kmh WSW 6.9 mph11.1 kmh 29.76 in1007.8 mb 0.00 in0.0 mm 0.00 in0.0 mm 0.17 in4.3 mm
11:35 PM 74.8°F23.8°C 68.3°F20.2°C 80% 6.0 mph SW9.7 kmh SW 7.6 mph12.2 kmh 29.75 in1007.5 mb 0.00 in0.0 mm 0.00 in0.0 mm 0.17 in4.3 mm
11:40 PM 74.8°F23.8°C 68.3°F20.2°C 80% 3.8 mph SW6.1 kmh SW 7.6 mph12.2 kmh 29.75 in1007.5 mb 0.00 in0.0 mm 0.00 in0.0 mm 0.17 in4.3 mm
11:45 PM 74.7°F23.7°C 68.1°F20.1°C 80% 1.6 mph SW2.6 kmh SW 7.6 mph12.2 kmh 29.75 in1007.5 mb 0.00 in0.0 mm 0.00 in0.0 mm 0.17 in4.3 mm
11:50 PM 74.7°F23.7°C 68.1°F20.1°C 80% 2.2 mph SW3.5 kmh SW 5.4 mph8.7 kmh 29.76 in1007.8 mb 0.00 in0.0 mm 0.00 in0.0 mm 0.17 in4.3 mm
11:55 PM 74.5°F23.6°C 67.9°F19.9°C 80% 2.2 mph SW3.5 kmh SW 3.8 mph6.1 kmh 29.75 in1007.5 mb 0.00 in0.0 mm 0.00 in0.0 mm 0.17 in4.3 mm